Time;durP1;ratioP1;P1;durP2;ratioP2;P2;SDS_P1;SDS_P2;PMS_P1;PMS_P2;Temp;Humidity;BMP_temperature;BMP_pressure;BME280_temperature;BME280_humidity;BME280_pressure;Samples;Min_cycle;Max_cycle;Signal;HPM_P1;HPM_P2
2023/07/15 00:01:39;;;;;;;1.10;1.10;;;19.50;99.90;;;;;;6069114;23;20018;-94
2023/07/15 00:04:44;;;;;;;1.10;1.10;;;19.40;99.90;;;;;;6048315;23;20041;-96
2023/07/15 00:07:10;;;;;;;1.30;1.30;;;19.30;99.90;;;;;;6042141;23;20480;-86
2023/07/15 00:09:35;;;;;;;1.20;1.20;;;19.30;99.90;;;;;;6066834;23;20084;-89
2023/07/15 00:12:01;;;;;;;1.20;1.20;;;19.20;99.90;;;;;;6044000;23;20053;-90
2023/07/15 00:14:30;;;;;;;1.20;1.20;;;19.10;99.90;;;;;;6045209;23;20022;-92
2023/07/15 00:16:56;;;;;;;1.35;1.35;;;19.10;99.90;;;;;;6045952;23;20053;-93
2023/07/15 00:19:22;;;;;;;1.30;1.30;;;19.00;99.90;;;;;;6045141;23;20101;-88
2023/07/15 00:21:51;;;;;;;1.42;1.38;;;18.90;99.90;;;;;;6044264;23;20055;-90
2023/07/15 00:24:17;;;;;;;1.67;1.58;;;19.00;99.90;;;;;;6043754;23;20025;-95
2023/07/15 00:26:47;;;;;;;1.73;1.63;;;18.90;99.90;;;;;;6047862;23;20025;-92
2023/07/15 00:29:35;;;;;;;1.67;1.58;;;18.90;99.90;;;;;;6047558;23;20407;-94
2023/07/15 00:32:17;;;;;;;1.95;1.85;;;18.90;99.90;;;;;;6049185;23;20026;-96
2023/07/15 00:34:55;;;;;;;;;;;;;;;;;;;;;
2023/07/15 00:37:37;;;;;;;2.05;1.95;;;18.90;99.90;;;;;;6074201;23;20055;-92
2023/07/15 00:40:04;;;;;;;2.05;1.95;;;18.90;99.90;;;;;;6048095;23;20022;-92
2023/07/15 00:43:10;;;;;;;2.03;1.92;;;18.90;99.90;;;;;;6045141;23;20045;-96
2023/07/15 00:45:39;;;;;;;2.60;2.50;;;19.00;99.90;;;;;;6072850;23;20022;-94
2023/07/15 00:48:30;;;;;;;2.60;2.50;;;19.00;99.90;;;;;;6051785;23;20414;-94
2023/07/15 00:50:58;;;;;;;2.67;2.55;;;19.00;99.90;;;;;;6045969;23;20025;-95
2023/07/15 00:53:32;;;;;;;2.65;2.53;;;19.10;99.90;;;;;;6044218;23;20623;-93
2023/07/15 00:55:58;;;;;;;2.47;2.38;;;19.20;99.90;;;;;;6046996;23;20022;-93
2023/07/15 00:58:50;;;;;;;2.47;2.38;;;19.20;99.90;;;;;;6046201;23;20531;-96
2023/07/15 01:01:17;;;;;;;2.58;2.47;;;19.20;99.90;;;;;;6036638;23;20023;-91
2023/07/15 01:03:57;;;;;;;2.53;2.42;;;19.20;99.90;;;;;;6048559;23;20023;-94
2023/07/15 01:06:35;;;;;;;2.53;2.42;;;19.30;99.90;;;;;;6048106;23;20025;-95
2023/07/15 01:12:25;;;;;;;2.47;2.38;;;19.30;99.90;;;;;;6047119;23;20049;-93
2023/07/15 01:15:00;;;;;;;2.83;2.65;;;19.30;99.90;;;;;;6048952;23;20029;-93
2023/07/15 01:17:28;;;;;;;3.72;3.53;;;19.30;99.90;;;;;;6049489;23;20169;-94
2023/07/15 01:19:54;;;;;;;3.72;3.53;;;19.30;99.90;;;;;;6047214;23;20085;-90
2023/07/15 01:22:21;;;;;;;3.60;3.40;;;19.40;99.90;;;;;;6069627;23;20026;-91
2023/07/15 01:24:47;;;;;;;3.50;3.30;;;19.40;99.90;;;;;;6047237;23;20034;-89
2023/07/15 01:27:13;;;;;;;3.38;3.17;;;19.40;99.90;;;;;;6046492;23;20022;-92
2023/07/15 01:29:41;;;;;;;3.30;3.10;;;19.40;99.90;;;;;;6047450;23;20341;-92
2023/07/15 01:32:09;;;;;;;3.15;2.95;;;19.50;99.90;;;;;;6046767;23;20570;-94
2023/07/15 01:34:36;;;;;;;3.10;2.90;;;19.50;99.90;;;;;;6048267;23;20037;-95
2023/07/15 01:37:03;;;;;;;2.90;2.70;;;19.60;99.90;;;;;;6048418;23;20030;-88
2023/07/15 01:39:29;;;;;;;2.83;2.63;;;19.70;99.90;;;;;;6045536;23;20029;-91
2023/07/15 01:41:55;;;;;;;2.50;2.40;;;19.70;99.90;;;;;;6044014;23;20022;-92
2023/07/15 01:44:23;;;;;;;2.30;2.20;;;19.70;99.90;;;;;;6046263;23;20014;-89
2023/07/15 01:46:52;;;;;;;2.38;2.28;;;19.60;99.90;;;;;;6045676;23;20061;-91
2023/07/15 01:49:18;;;;;;;2.33;2.22;;;19.60;99.90;;;;;;6045288;23;20054;-91
2023/07/15 01:51:43;;;;;;;2.17;2.08;;;19.60;99.90;;;;;;6044922;23;20086;-92
2023/07/15 01:54:09;;;;;;;2.20;2.10;;;19.60;99.90;;;;;;6044182;23;20022;-89
2023/07/15 01:56:36;;;;;;;2.10;2.00;;;19.60;99.90;;;;;;6043350;23;20026;-88
2023/07/15 01:59:02;;;;;;;2.10;2.00;;;19.60;99.90;;;;;;6043500;23;20022;-91
2023/07/15 02:01:28;;;;;;;2.20;2.10;;;19.60;99.90;;;;;;6044165;23;20550;-92
2023/07/15 02:03:53;;;;;;;2.15;2.05;;;19.60;99.90;;;;;;6068114;23;20018;-91
2023/07/15 02:06:19;;;;;;;2.08;1.98;;;19.60;99.90;;;;;;6044794;23;20021;-90
2023/07/15 02:08:48;;;;;;;2.15;2.05;;;19.50;99.90;;;;;;6045838;23;20018;-93
2023/07/15 02:11:14;;;;;;;2.13;2.03;;;19.50;99.90;;;;;;6046329;23;20105;-94
2023/07/15 02:13:40;;;;;;;2.00;1.90;;;19.50;99.90;;;;;;6047685;23;20391;-93
2023/07/15 02:16:06;;;;;;;2.10;2.00;;;19.40;99.90;;;;;;6046362;23;20402;-93
2023/07/15 02:18:32;;;;;;;2.05;1.95;;;19.50;99.90;;;;;;6046482;23;20022;-91
2023/07/15 02:20:57;;;;;;;1.98;1.88;;;19.60;99.90;;;;;;6045893;23;20022;-89
2023/07/15 02:23:23;;;;;;;2.00;1.90;;;19.60;99.90;;;;;;6069604;23;20101;-92
2023/07/15 02:25:49;;;;;;;2.03;1.92;;;19.60;99.90;;;;;;6047417;23;20069;-94
2023/07/15 02:28:15;;;;;;;1.80;1.70;;;19.60;99.90;;;;;;6047794;23;20018;-92
2023/07/15 02:31:02;;;;;;;1.90;1.80;;;19.50;99.90;;;;;;6046190;23;20026;-93
2023/07/15 02:33:43;;;;;;;2.10;2.00;;;19.30;99.90;;;;;;6046437;23;20019;-94
2023/07/15 02:36:09;;;;;;;2.03;1.92;;;19.40;99.90;;;;;;6047029;23;20454;-89
2023/07/15 02:38:35;;;;;;;2.13;2.03;;;19.40;99.90;;;;;;6048582;23;20074;-92
2023/07/15 02:41:00;;;;;;;1.88;1.77;;;19.50;99.90;;;;;;6046324;23;20038;-93
2023/07/15 02:43:26;;;;;;;1.90;1.80;;;19.50;99.90;;;;;;6045787;23;20372;-94
2023/07/15 02:45:52;;;;;;;2.03;1.92;;;19.60;99.90;;;;;;6046482;23;20073;-95
2023/07/15 02:48:21;;;;;;;1.88;1.77;;;19.50;99.90;;;;;;6045023;23;20018;-94
2023/07/15 02:50:54;;;;;;;1.80;1.70;;;19.40;99.90;;;;;;6046899;23;20027;-89
2023/07/15 02:53:20;;;;;;;1.88;1.77;;;19.40;99.90;;;;;;6048195;23;20033;-92
2023/07/15 03:00:27;;;;;;;2.00;1.90;;;19.30;99.90;;;;;;6100661;23;20029;-95
2023/07/15 03:07:29;;;;;;;2.10;2.00;;;19.40;99.90;;;;;;6055964;23;20085;-94
2023/07/15 03:10:22;;;;;;;2.30;2.20;;;19.40;99.90;;;;;;6050420;23;20052;-95
2023/07/15 03:12:57;;;;;;;2.30;2.20;;;19.40;99.90;;;;;;6070317;23;20081;-94
2023/07/15 03:15:22;;;;;;;2.40;2.30;;;19.30;99.90;;;;;;6068134;23;20068;-87
2023/07/15 03:18:21;;;;;;;2.30;2.20;;;19.40;99.90;;;;;;6042217;23;20100;-95
2023/07/15 03:20:47;;;;;;;2.25;2.15;;;19.50;99.90;;;;;;6064640;23;20161;-89
2023/07/15 03:23:22;;;;;;;2.30;2.20;;;19.40;99.90;;;;;;6066641;23;20066;-90
2023/07/15 03:25:50;;;;;;;2.15;2.05;;;19.30;99.90;;;;;;6066610;23;20023;-92
2023/07/15 03:28:16;;;;;;;2.15;2.05;;;19.30;99.90;;;;;;6066725;23;20042;-95
2023/07/15 03:30:52;;;;;;;2.22;2.13;;;19.30;99.90;;;;;;6068154;23;20102;-94
2023/07/15 03:33:31;;;;;;;2.20;2.10;;;19.30;99.90;;;;;;6067032;23;20061;-95
2023/07/15 03:36:00;;;;;;;2.15;2.05;;;19.40;99.90;;;;;;6066566;23;20018;-94
2023/07/15 03:38:32;;;;;;;2.28;2.17;;;19.50;99.90;;;;;;6066846;23;20446;-96
2023/07/15 03:41:09;;;;;;;2.13;2.03;;;19.50;99.90;;;;;;6068157;23;20018;-93
2023/07/15 03:43:38;;;;;;;2.15;2.05;;;19.50;99.90;;;;;;6066520;23;20054;-92
2023/07/15 03:46:04;;;;;;;2.13;2.03;;;19.60;99.90;;;;;;6046985;23;20081;-89
2023/07/15 03:48:33;;;;;;;2.08;1.98;;;19.70;99.90;;;;;;6071782;23;20062;-90
2023/07/15 03:51:12;;;;;;;1.92;1.83;;;19.70;99.90;;;;;;6046097;23;20023;-91
2023/07/15 03:53:38;;;;;;;1.95;1.85;;;19.70;99.90;;;;;;6049016;23;20014;-90
2023/07/15 03:56:04;;;;;;;1.88;1.77;;;19.70;99.90;;;;;;6093462;23;20580;-89
2023/07/15 03:58:30;;;;;;;1.85;1.75;;;19.70;99.90;;;;;;6044677;23;20018;-92
2023/07/15 04:04:08;;;;;;;1.80;1.70;;;19.70;99.90;;;;;;6072772;23;20454;-90
2023/07/15 04:07:03;;;;;;;1.90;1.80;;;19.80;99.90;;;;;;6047150;23;20074;-93
2023/07/15 04:09:29;;;;;;;1.90;1.80;;;19.70;99.90;;;;;;6070154;23;20077;-91
2023/07/15 04:11:57;;;;;;;1.98;1.88;;;19.60;99.90;;;;;;6046388;23;20018;-93
2023/07/15 04:14:26;;;;;;;1.73;1.63;;;19.70;99.90;;;;;;6044263;23;20018;-91
2023/07/15 04:16:55;;;;;;;1.80;1.70;;;19.70;99.90;;;;;;6046297;23;20018;-95
2023/07/15 04:19:21;;;;;;;1.70;1.60;;;19.70;99.90;;;;;;6046868;23;20038;-90
2023/07/15 04:22:37;;;;;;;1.67;1.58;;;19.60;99.90;;;;;;6045911;23;20015;-94
2023/07/15 04:25:30;;;;;;;1.77;1.67;;;19.70;99.90;;;;;;6028863;23;20116;-91
2023/07/15 04:28:01;;;;;;;1.70;1.60;;;19.70;99.90;;;;;;6039834;23;20037;-91
2023/07/15 04:30:27;;;;;;;1.60;1.50;;;19.70;99.90;;;;;;6022807;23;20077;-89
2023/07/15 04:32:53;;;;;;;1.60;1.50;;;19.70;99.90;;;;;;6044940;23;20331;-91
2023/07/15 04:35:30;;;;;;;1.60;1.50;;;19.70;99.90;;;;;;6069332;23;20025;-90
2023/07/15 04:37:58;;;;;;;1.60;1.50;;;19.70;99.90;;;;;;6049711;23;20023;-92
2023/07/15 04:40:30;;;;;;;1.52;1.42;;;19.80;99.90;;;;;;6095259;23;20022;-91
2023/07/15 04:42:55;;;;;;;1.52;1.42;;;19.80;99.90;;;;;;6047457;23;20114;-89
2023/07/15 04:45:29;;;;;;;1.58;1.48;;;19.90;99.90;;;;;;6049299;23;20046;-90
2023/07/15 04:48:33;;;;;;;1.60;1.50;;;20.00;99.90;;;;;;6095020;23;20046;-95
2023/07/15 04:51:01;;;;;;;1.45;1.40;;;20.00;99.90;;;;;;6047014;23;20110;-95
2023/07/15 04:53:27;;;;;;;1.52;1.42;;;20.10;99.90;;;;;;6046813;23;20032;-91
2023/07/15 04:55:55;;;;;;;1.30;1.30;;;22.60;99.90;;;;;;6048302;23;20109;-90
2023/07/15 05:01:11;;;;;;;0.90;0.90;;;25.40;99.90;;;;;;6096597;23;20080;-94
2023/07/15 05:03:37;;;;;;;0.82;0.82;;;26.60;99.90;;;;;;6045209;23;20469;-95
2023/07/15 05:06:03;;;;;;;0.57;0.57;;;27.40;99.90;;;;;;6046659;23;20158;-92
2023/07/15 05:08:47;;;;;;;0.30;0.30;;;27.90;99.90;;;;;;6072398;23;20088;-89
2023/07/15 05:11:15;;;;;;;0.45;0.45;;;26.70;99.90;;;;;;6065469;23;20808;-93
2023/07/15 05:13:41;;;;;;;0.30;0.30;;;25.50;99.90;;;;;;6089149;23;20362;-85
2023/07/15 05:16:10;;;;;;;0.30;0.30;;;27.60;99.90;;;;;;6047349;23;20025;-94
2023/07/15 05:18:44;;;;;;;0.30;0.30;;;28.70;99.90;;;;;;6047153;23;20026;-91
2023/07/15 05:21:20;;;;;;;;;;;;;;;;;;;;;
2023/07/15 05:23:46;;;;;;;0.30;0.30;;;29.60;99.90;;;;;;6095663;23;20029;-91
2023/07/15 05:26:12;;;;;;;0.32;0.32;;;30.10;99.90;;;;;;6046315;23;20023;-90
2023/07/15 05:28:41;;;;;;;0.30;0.30;;;29.70;99.90;;;;;;6045157;23;20029;-89
2023/07/15 05:31:09;;;;;;;0.35;0.35;;;30.30;99.90;;;;;;6047349;23;20022;-89
2023/07/15 05:33:35;;;;;;;0.30;0.30;;;30.90;99.50;;;;;;6048230;23;20023;-88
2023/07/15 05:36:01;;;;;;;0.30;0.30;;;29.40;99.50;;;;;;6045724;23;20026;-90
2023/07/15 05:38:27;;;;;;;0.30;0.30;;;30.30;99.00;;;;;;6045758;23;20022;-88
2023/07/15 05:40:56;;;;;;;0.30;0.30;;;30.90;99.00;;;;;;6046891;23;20101;-93
2023/07/15 05:43:28;;;;;;;0.30;0.30;;;31.10;99.00;;;;;;6047117;23;20438;-94
2023/07/15 05:45:54;;;;;;;0.32;0.32;;;31.00;98.50;;;;;;6045947;23;20458;-87
2023/07/15 05:48:19;;;;;;;0.30;0.30;;;30.60;97.50;;;;;;6043639;23;20033;-88
2023/07/15 05:50:46;;;;;;;0.30;0.30;;;30.50;97.80;;;;;;6091899;23;20089;-89
2023/07/15 05:53:11;;;;;;;0.30;0.30;;;29.80;98.00;;;;;;6044399;23;20125;-88
2023/07/15 05:55:37;;;;;;;0.30;0.30;;;27.70;98.80;;;;;;6045027;23;20112;-88
2023/07/15 05:58:09;;;;;;;0.30;0.30;;;27.00;99.90;;;;;;6070102;23;20025;-93
2023/07/15 06:00:53;;;;;;;0.30;0.30;;;26.90;99.90;;;;;;6048949;23;20109;-92
2023/07/15 06:03:18;;;;;;;0.30;0.30;;;26.20;99.90;;;;;;6069664;23;20029;-87
2023/07/15 06:05:50;;;;;;;0.30;0.30;;;26.20;99.90;;;;;;6049842;23;20435;-94
2023/07/15 06:08:28;;;;;;;0.30;0.30;;;26.30;99.90;;;;;;6094841;23;20030;-91
2023/07/15 06:10:54;;;;;;;0.30;0.30;;;26.10;99.90;;;;;;6047065;23;20022;-92
2023/07/15 06:13:57;;;;;;;0.30;0.30;;;26.10;99.90;;;;;;6047383;23;20101;-95
2023/07/15 06:16:23;;;;;;;0.30;0.30;;;26.10;99.90;;;;;;5933712;24;20052;-91
2023/07/15 06:18:49;;;;;;;0.30;0.30;;;26.30;99.90;;;;;;6023417;23;20358;-90
2023/07/15 06:21:35;;;;;;;0.30;0.30;;;25.80;99.90;;;;;;6046670;23;20033;-92
2023/07/15 06:24:09;;;;;;;0.38;0.38;;;25.70;99.90;;;;;;6042625;23;20022;-89
2023/07/15 06:26:35;;;;;;;0.30;0.30;;;25.90;99.90;;;;;;6045482;23;20057;-86
2023/07/15 06:29:07;;;;;;;0.30;0.30;;;25.60;99.90;;;;;;6092311;23;20018;-92
2023/07/15 06:31:45;;;;;;;0.30;0.30;;;25.80;99.90;;;;;;6090701;23;20021;-96
2023/07/15 06:34:20;;;;;;;0.63;0.40;;;25.60;99.90;;;;;;6045040;23;20078;-92
2023/07/15 06:36:54;;;;;;;0.32;0.32;;;25.90;99.90;;;;;;6044607;23;20019;-92
2023/07/15 06:39:20;;;;;;;0.30;0.30;;;26.00;99.90;;;;;;6045661;23;20062;-91
2023/07/15 06:42:12;;;;;;;0.30;0.30;;;26.30;99.90;;;;;;6046650;23;20047;-96
2023/07/15 06:44:38;;;;;;;0.30;0.30;;;26.40;99.90;;;;;;6045419;23;20393;-92
2023/07/15 06:47:04;;;;;;;0.30;0.30;;;26.40;99.90;;;;;;6042585;23;20026;-93
2023/07/15 06:49:29;;;;;;;0.30;0.30;;;26.60;99.90;;;;;;6043784;23;20022;-92
2023/07/15 06:52:05;;;;;;;0.30;0.30;;;26.80;99.90;;;;;;6042751;23;20060;-93
2023/07/15 06:54:31;;;;;;;0.30;0.30;;;26.70;99.90;;;;;;6041537;23;20077;-90
2023/07/15 06:57:29;;;;;;;0.30;0.30;;;26.60;99.90;;;;;;6041209;23;20022;-92
2023/07/15 06:59:55;;;;;;;0.30;0.30;;;26.80;99.90;;;;;;6065008;23;20054;-87
2023/07/15 07:02:21;;;;;;;0.30;0.30;;;26.60;99.90;;;;;;6041556;23;20038;-85
2023/07/15 07:04:57;;;;;;;0.30;0.30;;;26.60;99.90;;;;;;6092828;23;20085;-93
2023/07/15 07:10:31;;;;;;;0.30;0.30;;;26.80;99.90;;;;;;6061156;23;20045;-91
2023/07/15 07:13:09;;;;;;;0.40;0.40;;;26.70;99.90;;;;;;6045702;23;20093;-95
2023/07/15 07:15:35;;;;;;;0.30;0.30;;;26.90;99.90;;;;;;6047696;23;20014;-87
2023/07/15 07:18:00;;;;;;;0.20;0.20;;;27.00;99.90;;;;;;6044285;23;20022;-89
2023/07/15 07:20:26;;;;;;;0.40;0.40;;;26.60;99.90;;;;;;6044458;23;20033;-91
2023/07/15 07:22:52;;;;;;;0.30;0.30;;;26.90;99.90;;;;;;6043393;23;20029;-90
2023/07/15 07:25:18;;;;;;;0.30;0.30;;;27.20;99.90;;;;;;6044479;23;20027;-90
2023/07/15 07:27:46;;;;;;;0.40;0.40;;;27.10;99.90;;;;;;6043936;23;20029;-93
2023/07/15 07:30:15;;;;;;;0.30;0.30;;;27.00;99.90;;;;;;6045930;23;20493;-91
2023/07/15 07:32:41;;;;;;;0.30;0.30;;;27.10;99.90;;;;;;6089381;23;20018;-88
2023/07/15 07:35:09;;;;;;;0.30;0.30;;;27.00;99.90;;;;;;6092211;23;20416;-91
2023/07/15 07:37:35;;;;;;;0.30;0.30;;;26.90;99.90;;;;;;6041193;23;20026;-86
2023/07/15 07:40:09;;;;;;;0.30;0.30;;;27.10;99.90;;;;;;6043684;23;20085;-95
2023/07/15 07:42:35;;;;;;;0.25;0.25;;;26.90;99.90;;;;;;6086844;23;20050;-87
2023/07/15 07:45:17;;;;;;;0.30;0.30;;;27.10;99.90;;;;;;6091565;23;20022;-94
2023/07/15 07:47:42;;;;;;;0.30;0.30;;;27.10;99.90;;;;;;6084607;23;20019;-86
2023/07/15 07:50:08;;;;;;;0.20;0.20;;;27.30;99.90;;;;;;6089235;23;20339;-85
2023/07/15 07:52:34;;;;;;;0.30;0.30;;;26.90;99.90;;;;;;6087489;23;20018;-88
2023/07/15 07:55:08;;;;;;;0.30;0.30;;;27.00;99.90;;;;;;6044190;23;20018;-94
2023/07/15 07:57:34;;;;;;;0.30;0.30;;;27.20;99.90;;;;;;6046073;23;20018;-90
2023/07/15 08:00:00;;;;;;;0.30;0.30;;;27.30;99.90;;;;;;6040622;23;20049;-88
2023/07/15 08:02:47;;;;;;;0.30;0.30;;;27.20;99.90;;;;;;6040049;23;20058;-95
2023/07/15 08:05:13;;;;;;;0.30;0.30;;;27.40;99.90;;;;;;6092254;23;20018;-84
2023/07/15 08:07:38;;;;;;;0.30;0.30;;;27.60;99.90;;;;;;6089367;23;20370;-87
2023/07/15 08:10:07;;;;;;;0.30;0.30;;;27.60;99.90;;;;;;6043372;23;20026;-90
2023/07/15 08:12:42;;;;;;;0.20;0.20;;;27.80;99.90;;;;;;6066223;23;20023;-91
2023/07/15 08:15:09;;;;;;;0.30;0.30;;;27.80;99.90;;;;;;6056751;23;20099;-93
2023/07/15 08:17:36;;;;;;;0.30;0.30;;;28.00;99.90;;;;;;6035561;23;20025;-87
2023/07/15 08:20:02;;;;;;;0.30;0.30;;;28.00;99.90;;;;;;6088743;23;20033;-89
2023/07/15 08:22:31;;;;;;;0.30;0.30;;;28.10;99.90;;;;;;6065306;23;20018;-95
2023/07/15 08:24:56;;;;;;;0.30;0.30;;;28.20;99.90;;;;;;6063758;23;20026;-84
2023/07/15 08:27:22;;;;;;;0.30;0.30;;;28.20;99.90;;;;;;6041728;23;20402;-91
2023/07/15 08:29:48;;;;;;;0.30;0.30;;;27.90;99.90;;;;;;6040804;23;20018;-88
2023/07/15 08:32:13;;;;;;;0.30;0.30;;;28.00;99.90;;;;;;6088032;23;20026;-87
2023/07/15 08:35:04;;;;;;;0.30;0.30;;;28.30;99.90;;;;;;6041186;23;20459;-95
2023/07/15 08:37:42;;;;;;;0.30;0.30;;;28.50;99.90;;;;;;6031329;23;20026;-95
2023/07/15 08:40:14;;;;;;;0.30;0.30;;;28.60;99.90;;;;;;6029574;23;20481;-89
2023/07/15 08:42:40;;;;;;;0.30;0.30;;;28.30;99.90;;;;;;4891013;23;10000886;-85
2023/07/15 08:45:06;;;;;;;0.30;0.30;;;28.20;99.90;;;;;;5928637;24;20024;-84
2023/07/15 08:47:32;;;;;;;0.30;0.30;;;28.00;99.90;;;;;;5971412;24;20355;-84
2023/07/15 08:50:02;;;;;;;0.30;0.30;;;28.50;99.90;;;;;;5971557;24;20027;-89
2023/07/15 08:52:30;;;;;;;0.30;0.30;;;29.00;99.90;;;;;;5971199;23;20455;-85
2023/07/15 08:54:56;;;;;;;0.20;0.20;;;28.40;99.90;;;;;;5972619;24;20090;-85
2023/07/15 08:57:23;;;;;;;0.30;0.30;;;28.00;99.90;;;;;;5948804;24;20024;-85
2023/07/15 08:59:50;;;;;;;0.30;0.30;;;27.90;99.90;;;;;;5949603;24;20150;-85
2023/07/15 09:02:16;;;;;;;0.22;0.22;;;27.70;99.90;;;;;;5947967;23;20027;-89
2023/07/15 09:04:42;;;;;;;0.30;0.30;;;27.50;99.90;;;;;;5973479;23;20707;-90
2023/07/15 09:07:13;;;;;;;0.30;0.30;;;27.90;99.90;;;;;;5946267;24;20030;-90
2023/07/15 09:09:39;;;;;;;0.30;0.30;;;28.40;99.90;;;;;;5948308;24;20017;-87
2023/07/15 09:12:07;;;;;;;0.30;0.30;;;28.30;99.90;;;;;;5945528;23;20128;-84
2023/07/15 09:14:43;;;;;;;0.30;0.30;;;28.10;99.90;;;;;;5983290;23;20019;-87
2023/07/15 09:17:15;;;;;;;0.30;0.30;;;28.20;99.90;;;;;;6010639;23;20029;-86
2023/07/15 09:19:41;;;;;;;0.30;0.30;;;27.70;99.90;;;;;;6058046;23;20422;-85
2023/07/15 09:22:08;;;;;;;0.30;0.30;;;28.00;99.90;;;;;;6033710;23;20029;-82
2023/07/15 09:24:37;;;;;;;0.30;0.30;;;28.00;99.90;;;;;;6036129;23;20553;-84
2023/07/15 09:27:06;;;;;;;0.30;0.30;;;28.10;99.90;;;;;;6036399;23;20106;-91
2023/07/15 09:29:32;;;;;;;0.30;0.30;;;28.10;99.90;;;;;;6035805;23;20027;-87
2023/07/15 09:31:58;;;;;;;0.25;0.25;;;28.60;99.90;;;;;;6034553;23;20030;-84
2023/07/15 09:34:25;;;;;;;0.30;0.30;;;28.40;99.90;;;;;;6035555;23;20026;-84
2023/07/15 09:36:54;;;;;;;0.30;0.30;;;28.00;99.90;;;;;;6036364;23;20019;-83
2023/07/15 09:39:22;;;;;;;0.30;0.30;;;27.80;99.90;;;;;;6012168;23;20033;-85
2023/07/15 09:42:02;;;;;;;0.20;0.20;;;27.40;99.90;;;;;;6033764;23;20018;-84
2023/07/15 09:45:16;;;;;;;0.30;0.30;;;27.40;99.90;;;;;;6036032;23;20030;-85
2023/07/15 09:47:41;;;;;;;0.30;0.30;;;27.20;99.90;;;;;;5937786;23;20352;-87
2023/07/15 09:50:07;;;;;;;0.30;0.30;;;27.50;99.90;;;;;;4927732;23;10000134;-84
2023/07/15 09:52:35;;;;;;;0.30;0.30;;;27.30;99.90;;;;;;6035023;23;20359;-84
2023/07/15 09:55:05;;;;;;;0.20;0.20;;;27.30;99.90;;;;;;6061430;23;20101;-86
2023/07/15 09:57:30;;;;;;;0.20;0.20;;;27.00;99.90;;;;;;6036438;23;20026;-83
2023/07/15 09:59:57;;;;;;;0.28;0.28;;;27.30;99.90;;;;;;6060786;23;20015;-85
2023/07/15 10:02:42;;;;;;;0.30;0.30;;;27.30;99.90;;;;;;6056577;23;20027;-84
2023/07/15 10:05:13;;;;;;;0.20;0.20;;;27.00;99.90;;;;;;6035990;23;20068;-85
2023/07/15 10:07:40;;;;;;;0.20;0.20;;;26.80;99.90;;;;;;6060294;23;20030;-80
2023/07/15 10:10:08;;;;;;;0.30;0.30;;;26.40;99.90;;;;;;6060026;23;20347;-83
2023/07/15 10:12:35;;;;;;;0.20;0.20;;;26.50;99.90;;;;;;6034569;23;20493;-88
2023/07/15 10:15:02;;;;;;;0.30;0.30;;;26.50;99.90;;;;;;6035017;23;20026;-90
2023/07/15 10:17:36;;;;;;;0.40;0.40;;;26.70;99.90;;;;;;6035676;23;20042;-86
2023/07/15 10:20:13;;;;;;;0.28;0.28;;;26.50;99.90;;;;;;6012083;23;20027;-84
2023/07/15 10:22:40;;;;;;;0.30;0.30;;;26.30;99.90;;;;;;6011964;23;20015;-88
2023/07/15 10:25:15;;;;;;;0.30;0.30;;;26.30;99.90;;;;;;6059488;23;20498;-82
2023/07/15 10:27:40;;;;;;;0.30;0.30;;;26.60;99.90;;;;;;6011534;23;20762;-88
2023/07/15 10:30:20;;;;;;;0.30;0.30;;;26.40;99.90;;;;;;6010865;23;20030;-88
2023/07/15 10:33:01;;;;;;;0.30;0.30;;;26.20;99.90;;;;;;6031837;23;20082;-87
2023/07/15 10:35:33;;;;;;;0.30;0.30;;;25.90;99.90;;;;;;6059143;23;20027;-87
2023/07/15 10:38:19;;;;;;;0.25;0.25;;;25.90;99.90;;;;;;6035874;23;20029;-83
2023/07/15 10:40:51;;;;;;;0.20;0.20;;;25.60;99.90;;;;;;6034276;23;20027;-86
2023/07/15 10:43:22;;;;;;;0.30;0.30;;;25.40;99.90;;;;;;6010445;23;20030;-90
2023/07/15 10:45:55;;;;;;;0.30;0.30;;;25.20;99.90;;;;;;6032847;23;20018;-84
2023/07/15 10:48:22;;;;;;;0.30;0.30;;;25.20;99.90;;;;;;6056650;23;20022;-87
2023/07/15 10:50:51;;;;;;;0.30;0.30;;;25.40;99.90;;;;;;6053106;23;20030;-87
2023/07/15 10:53:22;;;;;;;0.65;0.30;;;25.50;99.90;;;;;;6007443;23;20030;-87
2023/07/15 10:55:56;;;;;;;0.28;0.28;;;25.80;99.90;;;;;;6034624;23;20078;-82
2023/07/15 10:58:22;;;;;;;0.30;0.30;;;26.50;99.90;;;;;;6056258;23;20346;-84
2023/07/15 11:00:48;;;;;;;0.30;0.30;;;26.60;99.90;;;;;;6058423;23;20023;-86
2023/07/15 11:03:14;;;;;;;0.30;0.30;;;26.80;99.90;;;;;;6059645;23;20030;-85
2023/07/15 11:05:44;;;;;;;0.30;0.30;;;26.70;99.90;;;;;;6059327;23;20029;-83
2023/07/15 11:08:10;;;;;;;0.30;0.30;;;26.60;99.90;;;;;;6058055;23;20588;-86
2023/07/15 11:10:36;;;;;;;0.30;0.30;;;26.60;99.90;;;;;;6036143;23;20023;-87
2023/07/15 11:13:15;;;;;;;0.30;0.30;;;26.40;99.90;;;;;;6059743;23;20066;-88
2023/07/15 11:15:43;;;;;;;0.30;0.30;;;26.20;99.90;;;;;;6036594;23;20446;-83
2023/07/15 11:18:24;;;;;;;0.30;0.30;;;26.00;99.90;;;;;;6035260;23;20022;-86
2023/07/15 11:20:51;;;;;;;0.30;0.30;;;25.90;99.90;;;;;;6012071;23;20109;-85
2023/07/15 11:23:18;;;;;;;0.30;0.30;;;25.70;99.90;;;;;;6035641;23;20041;-84
2023/07/15 11:25:49;;;;;;;0.30;0.30;;;25.70;99.90;;;;;;6035790;23;20027;-86
2023/07/15 11:28:18;;;;;;;0.38;0.38;;;25.50;99.90;;;;;;6059930;23;20019;-85
2023/07/15 11:30:46;;;;;;;0.30;0.30;;;25.60;99.90;;;;;;6012831;23;20022;-86
2023/07/15 11:33:12;;;;;;;0.30;0.30;;;25.40;99.90;;;;;;6036704;23;20027;-87
2023/07/15 11:35:40;;;;;;;0.30;0.30;;;25.30;99.90;;;;;;6036587;23;20034;-86
2023/07/15 11:38:14;;;;;;;0.30;0.30;;;25.30;99.90;;;;;;6037084;23;20018;-86
2023/07/15 11:40:53;;;;;;;0.30;0.30;;;25.40;99.90;;;;;;6060069;23;20027;-87
2023/07/15 11:43:20;;;;;;;0.30;0.30;;;25.40;99.90;;;;;;6059640;23;20326;-86
2023/07/15 11:45:46;;;;;;;0.30;0.30;;;25.50;99.90;;;;;;6036400;23;20418;-86
2023/07/15 11:48:12;;;;;;;0.30;0.30;;;25.50;99.90;;;;;;6036807;23;20031;-85
2023/07/15 11:50:37;;;;;;;0.30;0.30;;;25.50;99.90;;;;;;6012247;23;20528;-87
2023/07/15 11:53:03;;;;;;;0.30;0.30;;;25.40;99.90;;;;;;6059293;23;20027;-85
2023/07/15 11:55:29;;;;;;;0.30;0.30;;;25.30;99.90;;;;;;6058614;23;20062;-85
2023/07/15 11:57:56;;;;;;;0.30;0.30;;;25.30;99.90;;;;;;6035582;23;20018;-88
2023/07/15 12:00:29;;;;;;;0.30;0.30;;;25.20;99.90;;;;;;6011863;23;20541;-86
2023/07/15 12:02:56;;;;;;;0.30;0.30;;;25.20;99.90;;;;;;6034387;23;20018;-85
2023/07/15 12:05:22;;;;;;;0.30;0.30;;;25.10;99.90;;;;;;6036366;23;20159;-87
2023/07/15 12:07:50;;;;;;;0.30;0.30;;;25.20;99.90;;;;;;6036832;23;20074;-85
2023/07/15 12:10:17;;;;;;;0.30;0.30;;;25.50;99.90;;;;;;6036299;23;20435;-87
2023/07/15 12:12:45;;;;;;;0.30;0.30;;;25.80;99.90;;;;;;6034989;23;20023;-84
2023/07/15 12:15:14;;;;;;;0.30;0.30;;;26.00;99.90;;;;;;6034186;23;20459;-90
2023/07/15 12:17:40;;;;;;;0.30;0.30;;;26.00;99.90;;;;;;6058317;23;20144;-88
2023/07/15 12:20:06;;;;;;;0.30;0.30;;;26.00;99.90;;;;;;6034220;23;20439;-85
2023/07/15 12:22:32;;;;;;;0.30;0.30;;;26.00;99.90;;;;;;6057532;23;20015;-86
2023/07/15 12:24:57;;;;;;;0.30;0.30;;;26.00;99.90;;;;;;6060090;23;20352;-85
2023/07/15 12:27:24;;;;;;;0.40;0.40;;;26.00;99.90;;;;;;6036409;23;20033;-86
2023/07/15 12:29:49;;;;;;;0.30;0.30;;;26.00;99.90;;;;;;6059701;23;20356;-87
2023/07/15 12:32:15;;;;;;;0.30;0.30;;;25.70;99.90;;;;;;6036422;23;20026;-87
2023/07/15 12:34:41;;;;;;;0.30;0.30;;;25.40;99.90;;;;;;6037502;23;20034;-84
2023/07/15 12:37:09;;;;;;;0.30;0.30;;;25.20;99.90;;;;;;6013684;23;20031;-87
2023/07/15 12:39:35;;;;;;;0.30;0.30;;;25.10;99.90;;;;;;6013764;23;20039;-89
2023/07/15 12:42:04;;;;;;;0.32;0.32;;;25.00;99.90;;;;;;6061623;23;20030;-85
2023/07/15 12:44:29;;;;;;;0.30;0.30;;;24.90;99.90;;;;;;6037004;23;20022;-88
2023/07/15 12:46:55;;;;;;;0.30;0.30;;;24.90;99.90;;;;;;6036966;23;20022;-88
2023/07/15 12:49:23;;;;;;;0.30;0.30;;;24.90;99.90;;;;;;6038445;23;20026;-92
2023/07/15 12:51:49;;;;;;;0.40;0.40;;;25.00;99.90;;;;;;6061649;23;20043;-87
2023/07/15 12:54:15;;;;;;;0.30;0.30;;;25.10;99.90;;;;;;6013658;23;20026;-85
2023/07/15 12:56:41;;;;;;;0.30;0.30;;;25.10;99.90;;;;;;6061505;23;20022;-85
2023/07/15 12:59:07;;;;;;;0.30;0.30;;;25.40;99.90;;;;;;6014939;23;20350;-92
2023/07/15 13:01:32;;;;;;;0.30;0.30;;;25.80;99.90;;;;;;6038028;23;20058;-85
2023/07/15 13:03:58;;;;;;;0.30;0.30;;;25.80;99.90;;;;;;6060864;23;20430;-84
2023/07/15 13:06:24;;;;;;;0.30;0.30;;;25.70;99.90;;;;;;6061593;23;20130;-91
2023/07/15 13:08:50;;;;;;;0.30;0.30;;;25.90;99.90;;;;;;6014260;23;20118;-87
2023/07/15 13:11:19;;;;;;;0.30;0.30;;;26.20;99.90;;;;;;6037609;23;20110;-85
2023/07/15 13:13:44;;;;;;;0.30;0.30;;;26.90;99.90;;;;;;6036413;23;20122;-83
2023/07/15 13:16:11;;;;;;;0.30;0.30;;;26.50;99.90;;;;;;6036503;23;20117;-90
2023/07/15 13:18:37;;;;;;;0.30;0.30;;;26.60;99.90;;;;;;6034984;23;20030;-87
2023/07/15 13:21:04;;;;;;;0.30;0.30;;;26.90;99.90;;;;;;6037411;23;20015;-89
2023/07/15 13:23:33;;;;;;;0.73;0.40;;;27.60;99.90;;;;;;6061525;23;20019;-89
2023/07/15 13:25:59;;;;;;;0.30;0.30;;;28.30;99.90;;;;;;6012361;23;20023;-85